Time;durP1;ratioP1;P1;durP2;ratioP2;P2;SDS_P1;SDS_P2;PMS_P1;PMS_P2;Temp;Humidity;BMP_temperature;BMP_pressure;BME280_temperature;BME280_humidity;BME280_pressure;Samples;Min_cycle;Max_cycle;Signal;HPM_P1;HPM_P2
2021/05/22 00:00:14;;;;;;;21.23;3.13;;;;;;;;;;1477176;40;20462;-80
2021/05/22 00:01:16;;;;;;;18.17;3.80;;;;;;;;;;1477571;40;20414;-80
2021/05/22 00:02:18;;;;;;;21.15;3.22;;;;;;;;;;1478157;40;20409;-80
2021/05/22 00:03:20;;;;;;;23.45;4.57;;;;;;;;;;1477918;40;20442;-80
2021/05/22 00:04:21;;;;;;;17.42;2.85;;;;;;;;;;1477519;40;20647;-80
2021/05/22 00:05:23;;;;;;;19.15;2.95;;;;;;;;;;1477470;40;20430;-80
2021/05/22 00:06:25;;;;;;;18.08;2.95;;;;;;;;;;1476097;40;20471;-80
2021/05/22 00:07:27;;;;;;;17.13;2.97;;;;;;;;;;1478324;40;20410;-81
2021/05/22 00:08:29;;;;;;;16.65;2.70;;;;;;;;;;1474650;40;20408;-80
2021/05/22 00:09:30;;;;;;;21.02;3.83;;;;;;;;;;1474186;40;20778;-81
2021/05/22 00:10:32;;;;;;;18.75;2.63;;;;;;;;;;1473973;40;20415;-81
2021/05/22 00:11:37;;;;;;;18.58;3.75;;;;;;;;;;1473656;40;20400;-82
2021/05/22 00:12:40;;;;;;;20.45;3.45;;;;;;;;;;1473094;40;20428;-80
2021/05/22 00:13:42;;;;;;;18.77;3.08;;;;;;;;;;1470209;40;20401;-80
2021/05/22 00:14:43;;;;;;;13.10;2.72;;;;;;;;;;1470068;40;20386;-80
2021/05/22 00:15:45;;;;;;;19.88;2.67;;;;;;;;;;1473686;40;20423;-80
2021/05/22 00:16:46;;;;;;;12.10;2.60;;;;;;;;;;1474063;40;20411;-80
2021/05/22 00:17:49;;;;;;;18.05;3.28;;;;;;;;;;1473800;40;20412;-81
2021/05/22 00:18:51;;;;;;;16.23;2.97;;;;;;;;;;1474784;40;20768;-80
2021/05/22 00:19:53;;;;;;;19.13;2.90;;;;;;;;;;1474239;40;20403;-80
2021/05/22 00:20:54;;;;;;;12.23;2.03;;;;;;;;;;1474899;40;20977;-80
2021/05/22 00:21:56;;;;;;;16.80;2.92;;;;;;;;;;1477001;40;20402;-80
2021/05/22 00:22:58;;;;;;;18.73;3.05;;;;;;;;;;1478798;40;20433;-81
2021/05/22 00:24:00;;;;;;;21.42;3.55;;;;;;;;;;1478837;40;20407;-80
2021/05/22 00:25:04;;;;;;;15.73;2.70;;;;;;;;;;1478357;40;20445;-80
2021/05/22 00:26:06;;;;;;;19.73;3.97;;;;;;;;;;1475052;40;20410;-81
2021/05/22 00:27:07;;;;;;;20.40;3.35;;;;;;;;;;1480602;40;20385;-80
2021/05/22 00:28:09;;;;;;;16.55;3.45;;;;;;;;;;1483119;40;20550;-80
2021/05/22 00:29:11;;;;;;;20.63;3.55;;;;;;;;;;1474028;40;20416;-81
2021/05/22 00:30:13;;;;;;;14.50;3.40;;;;;;;;;;1469783;40;20406;-81
2021/05/22 00:31:15;;;;;;;18.70;3.25;;;;;;;;;;1478029;40;20411;-80
2021/05/22 00:32:17;;;;;;;22.45;3.50;;;;;;;;;;1478229;40;20409;-81
2021/05/22 00:33:18;;;;;;;15.57;2.20;;;;;;;;;;1478314;40;20410;-80
2021/05/22 00:34:20;;;;;;;14.80;2.38;;;;;;;;;;1477700;40;20417;-80
2021/05/22 00:35:22;;;;;;;14.93;3.08;;;;;;;;;;1473451;40;20415;-81
2021/05/22 00:36:23;;;;;;;14.60;3.17;;;;;;;;;;1468579;40;20552;-80
2021/05/22 00:37:25;;;;;;;15.98;3.03;;;;;;;;;;1472923;40;20436;-80
2021/05/22 00:38:26;;;;;;;20.35;3.72;;;;;;;;;;1471080;40;20831;-80
2021/05/22 00:39:28;;;;;;;21.00;3.63;;;;;;;;;;1474802;40;20723;-80
2021/05/22 00:40:30;;;;;;;13.93;2.20;;;;;;;;;;1478202;40;20394;-80
2021/05/22 00:41:31;;;;;;;15.48;3.25;;;;;;;;;;1477985;40;20809;-80
2021/05/22 00:42:36;;;;;;;19.00;3.67;;;;;;;;;;1478051;40;20414;-80
2021/05/22 00:43:38;;;;;;;17.80;3.17;;;;;;;;;;1476660;40;20408;-82
2021/05/22 00:45:03;;;;;;;14.48;2.88;;;;;;;;;;1468968;40;20468;-80
2021/05/22 00:46:06;;;;;;;14.48;2.83;;;;;;;;;;1471339;40;20779;-80
2021/05/22 00:47:07;;;;;;;15.75;2.53;;;;;;;;;;1473654;40;20428;-80
2021/05/22 00:48:10;;;;;;;19.58;3.00;;;;;;;;;;1473948;40;20503;-80
2021/05/22 00:49:11;;;;;;;13.30;3.13;;;;;;;;;;1469712;40;20424;-81
2021/05/22 00:50:26;;;;;;;15.10;2.40;;;;;;;;;;1465582;40;20566;-80
2021/05/22 00:51:27;;;;;;;15.02;2.20;;;;;;;;;;1469963;40;20418;-80
2021/05/22 00:52:29;;;;;;;13.65;3.15;;;;;;;;;;1480567;40;20422;-81
2021/05/22 00:53:32;;;;;;;18.38;2.72;;;;;;;;;;1476896;40;20403;-81
2021/05/22 00:54:33;;;;;;;15.63;2.50;;;;;;;;;;1477991;40;20699;-81
2021/05/22 00:55:35;;;;;;;15.68;2.55;;;;;;;;;;1478477;40;20398;-82
2021/05/22 00:56:37;;;;;;;22.38;3.75;;;;;;;;;;1478192;40;20434;-82
2021/05/22 00:57:40;;;;;;;15.13;2.75;;;;;;;;;;1478121;40;20799;-82
2021/05/22 00:58:43;;;;;;;14.73;2.53;;;;;;;;;;1476501;40;20517;-81
2021/05/22 00:59:45;;;;;;;18.23;3.33;;;;;;;;;;1474067;40;20708;-81
2021/05/22 01:00:49;;;;;;;24.92;3.65;;;;;;;;;;1473617;40;20757;-81
2021/05/22 01:01:51;;;;;;;11.27;2.33;;;;;;;;;;1476583;40;20398;-80
2021/05/22 01:02:54;;;;;;;13.55;2.45;;;;;;;;;;1473704;40;20411;-81
2021/05/22 01:03:55;;;;;;;18.48;2.50;;;;;;;;;;1473660;40;20412;-80
2021/05/22 01:04:57;;;;;;;13.88;2.50;;;;;;;;;;1478553;40;20418;-81
2021/05/22 01:06:08;;;;;;;17.75;2.70;;;;;;;;;;1478086;40;20485;-80
2021/05/22 01:07:10;;;;;;;13.43;2.42;;;;;;;;;;1478169;40;20857;-81
2021/05/22 01:08:23;;;;;;;14.85;2.65;;;;;;;;;;1474885;40;21249;-81
2021/05/22 01:09:25;;;;;;;14.05;2.08;;;;;;;;;;1474835;40;20419;-81
2021/05/22 01:10:27;;;;;;;12.77;2.45;;;;;;;;;;1477980;40;20417;-81
2021/05/22 01:11:33;;;;;;;12.70;2.95;;;;;;;;;;1478394;40;20416;-81
2021/05/22 01:12:38;;;;;;;17.90;3.28;;;;;;;;;;1478229;40;20749;-81
2021/05/22 01:13:42;;;;;;;19.13;3.47;;;;;;;;;;1477914;40;20426;-82
2021/05/22 01:14:59;;;;;;;15.13;3.08;;;;;;;;;;1481399;40;20406;-80
2021/05/22 01:16:01;;;;;;;13.55;3.30;;;;;;;;;;1482808;40;20453;-82
2021/05/22 01:17:04;;;;;;;17.00;3.33;;;;;;;;;;1483864;40;20398;-82
2021/05/22 01:18:06;;;;;;;14.17;3.33;;;;;;;;;;1483697;40;20763;-82
2021/05/22 01:19:15;;;;;;;16.58;2.78;;;;;;;;;;1483847;40;20397;-81
2021/05/22 01:20:55;;;;;;;18.02;3.15;;;;;;;;;;1481951;40;20398;-81
2021/05/22 01:21:57;;;;;;;15.88;2.10;;;;;;;;;;1468942;40;20716;-80
2021/05/22 01:23:03;;;;;;;16.33;2.65;;;;;;;;;;1476722;40;20527;-81
2021/05/22 01:24:14;;;;;;;15.50;3.10;;;;;;;;;;1475215;40;20386;-81
2021/05/22 01:25:33;;;;;;;14.82;2.33;;;;;;;;;;1471204;40;20406;-82
2021/05/22 01:26:35;;;;;;;14.65;2.70;;;;;;;;;;1475501;40;20420;-81
2021/05/22 01:27:36;;;;;;;14.88;2.63;;;;;;;;;;1478249;40;20739;-82
2021/05/22 01:28:39;;;;;;;13.27;2.53;;;;;;;;;;1478403;40;20406;-81
2021/05/22 01:29:41;;;;;;;14.85;1.85;;;;;;;;;;1474673;40;20423;-82
2021/05/22 01:30:47;;;;;;;12.57;1.97;;;;;;;;;;1474341;40;20464;-82
2021/05/22 01:31:49;;;;;;;8.10;1.75;;;;;;;;;;1474303;40;20698;-82
2021/05/22 01:32:50;;;;;;;10.75;2.40;;;;;;;;;;1474446;40;20416;-82
2021/05/22 01:33:52;;;;;;;12.82;2.38;;;;;;;;;;1478450;40;20426;-82
2021/05/22 01:34:55;;;;;;;12.27;2.40;;;;;;;;;;1478312;40;20892;-81
2021/05/22 01:35:56;;;;;;;11.90;3.17;;;;;;;;;;1477515;40;20504;-81
2021/05/22 01:36:58;;;;;;;12.90;2.67;;;;;;;;;;1475571;40;20668;-81
2021/05/22 01:38:00;;;;;;;11.25;2.55;;;;;;;;;;1471764;40;20433;-81
2021/05/22 01:39:02;;;;;;;12.80;2.10;;;;;;;;;;1474420;40;20419;-82
2021/05/22 01:40:06;;;;;;;15.35;2.80;;;;;;;;;;1477713;40;20413;-81
2021/05/22 01:41:08;;;;;;;13.23;2.50;;;;;;;;;;1478183;40;20418;-81
2021/05/22 01:42:10;;;;;;;14.80;2.72;;;;;;;;;;1476769;40;20419;-81
2021/05/22 01:43:11;;;;;;;14.63;2.63;;;;;;;;;;1474730;40;20422;-81
2021/05/22 01:44:13;;;;;;;15.35;2.70;;;;;;;;;;1473885;40;20542;-81
2021/05/22 01:45:31;;;;;;;14.63;2.45;;;;;;;;;;1475935;40;20811;-81
2021/05/22 01:46:34;;;;;;;17.98;2.00;;;;;;;;;;1478861;40;20695;-81
2021/05/22 01:47:36;;;;;;;10.77;2.13;;;;;;;;;;1478591;40;20414;-81
2021/05/22 01:48:38;;;;;;;16.60;2.47;;;;;;;;;;1478539;40;20481;-82
2021/05/22 01:49:40;;;;;;;17.13;2.10;;;;;;;;;;1478649;40;20423;-82
2021/05/22 01:50:46;;;;;;;12.88;2.40;;;;;;;;;;1474135;40;20815;-83
2021/05/22 01:51:48;;;;;;;13.93;2.25;;;;;;;;;;1476309;40;20412;-82
2021/05/22 01:52:54;;;;;;;15.82;2.13;;;;;;;;;;1478312;40;20417;-82
2021/05/22 01:53:55;;;;;;;13.73;2.20;;;;;;;;;;1474332;40;20439;-81
2021/05/22 01:54:58;;;;;;;13.90;2.40;;;;;;;;;;1470303;40;20454;-81
2021/05/22 01:56:01;;;;;;;13.00;2.25;;;;;;;;;;1469867;40;20433;-81
2021/05/22 01:57:04;;;;;;;10.90;1.88;;;;;;;;;;1474694;40;20404;-83
2021/05/22 01:58:06;;;;;;;14.98;2.63;;;;;;;;;;1470063;40;20822;-82
2021/05/22 01:59:08;;;;;;;14.43;2.78;;;;;;;;;;1474559;40;20650;-81
2021/05/22 02:00:15;;;;;;;13.80;2.33;;;;;;;;;;1474453;40;20431;-82
2021/05/22 02:01:17;;;;;;;9.38;1.73;;;;;;;;;;1474698;40;20412;-82
2021/05/22 02:02:21;;;;;;;15.60;2.25;;;;;;;;;;1478640;40;20855;-82
2021/05/22 02:03:57;;;;;;;16.83;3.30;;;;;;;;;;1477846;40;20414;-81
2021/05/22 02:05:01;;;;;;;14.13;2.63;;;;;;;;;;1455411;40;20487;-82
2021/05/22 02:06:07;;;;;;;13.40;3.13;;;;;;;;;;1472927;40;20450;-81
2021/05/22 02:07:09;;;;;;;17.58;3.17;;;;;;;;;;1477823;40;20406;-82
2021/05/22 02:08:16;;;;;;;12.90;2.67;;;;;;;;;;1475826;40;20459;-82
2021/05/22 02:09:19;;;;;;;15.85;2.90;;;;;;;;;;1470045;40;20761;-81
2021/05/22 02:10:21;;;;;;;12.23;1.83;;;;;;;;;;1470293;40;20473;-82
2021/05/22 02:11:26;;;;;;;16.42;2.25;;;;;;;;;;1474288;40;20423;-81
2021/05/22 02:12:31;;;;;;;13.73;3.03;;;;;;;;;;1477101;40;20531;-82
2021/05/22 02:13:35;;;;;;;8.15;2.10;;;;;;;;;;1479166;40;20402;-82
2021/05/22 02:14:37;;;;;;;14.57;2.65;;;;;;;;;;1482426;40;20786;-82
2021/05/22 02:15:41;;;;;;;12.35;2.42;;;;;;;;;;1478593;40;20403;-83
2021/05/22 02:16:46;;;;;;;15.00;3.45;;;;;;;;;;1477678;40;20421;-83
2021/05/22 02:17:48;;;;;;;12.25;2.10;;;;;;;;;;1478869;40;20413;-81
2021/05/22 02:18:51;;;;;;;11.70;1.85;;;;;;;;;;1474609;40;20492;-82
2021/05/22 02:19:56;;;;;;;13.35;2.55;;;;;;;;;;1470605;40;20416;-82
2021/05/22 02:21:00;;;;;;;13.90;2.03;;;;;;;;;;1474990;40;20408;-82
2021/05/22 02:22:05;;;;;;;16.20;2.10;;;;;;;;;;1477557;40;20424;-81
2021/05/22 02:23:07;;;;;;;14.85;2.30;;;;;;;;;;1474033;40;20424;-80
2021/05/22 02:24:14;;;;;;;13.88;2.20;;;;;;;;;;1480097;40;20441;-81
2021/05/22 02:25:16;;;;;;;13.05;3.35;;;;;;;;;;1479880;40;20387;-81
2021/05/22 02:26:24;;;;;;;10.85;2.03;;;;;;;;;;1475799;40;20396;-81
2021/05/22 02:27:26;;;;;;;13.00;2.33;;;;;;;;;;1475392;40;20447;-81
2021/05/22 02:28:32;;;;;;;16.48;2.30;;;;;;;;;;1474903;40;20412;-81
2021/05/22 02:29:36;;;;;;;10.73;2.33;;;;;;;;;;1470309;40;20425;-81
2021/05/22 02:30:41;;;;;;;16.80;2.20;;;;;;;;;;1470631;40;20687;-81
2021/05/22 02:31:46;;;;;;;14.55;2.42;;;;;;;;;;1473904;40;20420;-81
2021/05/22 02:32:49;;;;;;;12.02;2.10;;;;;;;;;;1474597;40;20789;-81
2021/05/22 02:33:54;;;;;;;15.13;2.08;;;;;;;;;;1474662;40;20412;-79
2021/05/22 02:34:57;;;;;;;13.05;2.22;;;;;;;;;;1474973;40;20507;-81
2021/05/22 02:36:01;;;;;;;18.75;2.67;;;;;;;;;;1473916;40;20427;-80
2021/05/22 02:37:03;;;;;;;13.32;2.08;;;;;;;;;;1470926;40;20421;-81
2021/05/22 02:38:05;;;;;;;14.68;3.13;;;;;;;;;;1472235;40;20400;-81
2021/05/22 02:39:08;;;;;;;13.77;2.65;;;;;;;;;;1475254;40;20397;-82
2021/05/22 02:40:15;;;;;;;17.75;2.85;;;;;;;;;;1483708;40;20476;-80
2021/05/22 02:41:19;;;;;;;18.75;2.55;;;;;;;;;;1483656;40;20908;-81
2021/05/22 02:42:22;;;;;;;14.98;2.80;;;;;;;;;;1478263;40;20465;-81
2021/05/22 02:43:29;;;;;;;15.93;2.53;;;;;;;;;;1474565;40;20456;-82
2021/05/22 02:44:33;;;;;;;9.20;2.17;;;;;;;;;;1474487;40;20384;-80
2021/05/22 02:45:40;;;;;;;17.67;2.63;;;;;;;;;;1478409;40;20746;-80
2021/05/22 02:46:46;;;;;;;18.95;3.28;;;;;;;;;;1483167;40;20606;-81
2021/05/22 02:47:53;;;;;;;13.70;2.67;;;;;;;;;;1482709;40;20793;-81
2021/05/22 02:48:56;;;;;;;15.52;2.78;;;;;;;;;;1478498;40;20410;-81
2021/05/22 02:50:06;;;;;;;17.63;2.78;;;;;;;;;;1478135;40;20426;-81
2021/05/22 02:51:10;;;;;;;15.32;3.00;;;;;;;;;;1477048;40;20413;-81
2021/05/22 02:52:17;;;;;;;16.77;3.17;;;;;;;;;;1474425;40;20420;-82
2021/05/22 02:53:23;;;;;;;19.77;3.35;;;;;;;;;;1481457;40;20409;-81
2021/05/22 02:54:27;;;;;;;15.85;2.53;;;;;;;;;;1482204;40;20448;-81
2021/05/22 02:55:29;;;;;;;21.08;2.65;;;;;;;;;;1477579;40;20402;-81
2021/05/22 02:56:33;;;;;;;16.17;2.85;;;;;;;;;;1473366;40;20393;-80
2021/05/22 02:57:36;;;;;;;13.32;2.10;;;;;;;;;;1474122;40;20433;-81
2021/05/22 02:58:40;;;;;;;15.37;2.37;;;;;;;;;;1474061;40;20471;-81
2021/05/22 02:59:44;;;;;;;17.25;3.40;;;;;;;;;;1474376;40;20498;-82
2021/05/22 03:00:47;;;;;;;16.40;3.22;;;;;;;;;;1478409;40;20775;-81
2021/05/22 03:01:49;;;;;;;20.45;3.42;;;;;;;;;;1474185;40;20439;-81
2021/05/22 03:02:52;;;;;;;16.67;3.20;;;;;;;;;;1474245;40;20420;-81
2021/05/22 03:03:54;;;;;;;12.23;2.53;;;;;;;;;;1473748;40;20694;-82
2021/05/22 03:04:57;;;;;;;13.02;2.58;;;;;;;;;;1474098;40;20413;-82
2021/05/22 03:06:05;;;;;;;16.90;3.10;;;;;;;;;;1477354;40;20578;-81
2021/05/22 03:07:07;;;;;;;16.52;2.95;;;;;;;;;;1477570;40;20398;-82
2021/05/22 03:08:08;;;;;;;17.48;3.17;;;;;;;;;;1480457;40;20418;-82
2021/05/22 03:09:10;;;;;;;18.48;2.85;;;;;;;;;;1473941;40;20408;-82
2021/05/22 03:10:12;;;;;;;13.88;2.90;;;;;;;;;;1469903;40;20845;-82
2021/05/22 03:11:15;;;;;;;17.50;3.45;;;;;;;;;;1469876;40;20421;-81
2021/05/22 03:12:27;;;;;;;15.38;3.47;;;;;;;;;;1476504;40;20791;-82
2021/05/22 03:13:29;;;;;;;12.30;3.30;;;;;;;;;;1478067;40;20402;-82
2021/05/22 03:14:31;;;;;;;13.93;2.80;;;;;;;;;;1474373;40;20447;-82
2021/05/22 03:15:34;;;;;;;9.20;2.50;;;;;;;;;;1469911;40;20428;-81
2021/05/22 03:16:35;;;;;;;11.77;3.03;;;;;;;;;;1474406;40;20801;-82
2021/05/22 03:17:37;;;;;;;11.13;2.88;;;;;;;;;;1482898;40;20413;-81
2021/05/22 03:18:39;;;;;;;12.57;2.83;;;;;;;;;;1478306;40;20417;-82
2021/05/22 03:19:40;;;;;;;12.25;2.63;;;;;;;;;;1473280;40;20713;-82
2021/05/22 03:20:42;;;;;;;12.60;2.60;;;;;;;;;;1469468;40;20826;-82
2021/05/22 03:21:44;;;;;;;18.58;3.17;;;;;;;;;;1472065;40;20443;-82
2021/05/22 03:22:45;;;;;;;11.27;2.28;;;;;;;;;;1482418;40;20405;-83
2021/05/22 03:23:47;;;;;;;11.43;2.55;;;;;;;;;;1473874;40;20412;-82
2021/05/22 03:24:49;;;;;;;10.95;2.70;;;;;;;;;;1465941;40;20438;-82
2021/05/22 03:25:51;;;;;;;12.70;2.05;;;;;;;;;;1462072;40;20424;-83
2021/05/22 03:26:53;;;;;;;12.75;2.40;;;;;;;;;;1467235;40;20423;-81
2021/05/22 03:27:55;;;;;;;10.73;2.72;;;;;;;;;;1469876;40;21099;-82
2021/05/22 03:28:56;;;;;;;17.05;2.70;;;;;;;;;;1466112;40;20395;-82
2021/05/22 03:29:58;;;;;;;14.43;3.00;;;;;;;;;;1470710;40;20402;-82
2021/05/22 03:31:00;;;;;;;15.20;2.75;;;;;;;;;;1478932;40;20515;-82
2021/05/22 03:32:02;;;;;;;13.80;2.22;;;;;;;;;;1479964;40;21078;-81
2021/05/22 03:33:04;;;;;;;14.85;2.40;;;;;;;;;;1477847;40;20580;-82
2021/05/22 03:34:06;;;;;;;14.75;2.63;;;;;;;;;;1478415;40;20421;-81
2021/05/22 03:35:09;;;;;;;20.73;3.60;;;;;;;;;;1478313;40;21055;-81
2021/05/22 03:36:12;;;;;;;10.95;2.45;;;;;;;;;;1476323;40;20398;-82
2021/05/22 03:37:13;;;;;;;10.75;2.20;;;;;;;;;;1478164;40;20430;-83
2021/05/22 03:38:15;;;;;;;9.43;1.85;;;;;;;;;;1476354;40;20400;-81
2021/05/22 03:39:18;;;;;;;11.20;2.70;;;;;;;;;;1466415;40;20415;-81
2021/05/22 03:40:20;;;;;;;12.13;1.55;;;;;;;;;;1472534;40;20425;-82
2021/05/22 03:41:21;;;;;;;12.98;2.03;;;;;;;;;;1478121;40;20416;-81
2021/05/22 03:42:23;;;;;;;13.17;2.40;;;;;;;;;;1480920;40;20418;-81
2021/05/22 03:43:25;;;;;;;12.95;2.38;;;;;;;;;;1483270;40;20407;-81
2021/05/22 03:44:27;;;;;;;9.43;2.40;;;;;;;;;;1478553;40;20404;-82
2021/05/22 03:45:28;;;;;;;10.30;1.90;;;;;;;;;;1478820;40;20399;-81
2021/05/22 03:46:30;;;;;;;13.40;2.40;;;;;;;;;;1476993;40;20419;-81
2021/05/22 03:47:32;;;;;;;12.40;2.25;;;;;;;;;;1477671;40;20415;-81
2021/05/22 03:48:33;;;;;;;11.63;1.85;;;;;;;;;;1480673;40;20437;-81
2021/05/22 03:49:35;;;;;;;14.98;2.55;;;;;;;;;;1470691;40;20417;-81
2021/05/22 03:50:37;;;;;;;15.30;2.42;;;;;;;;;;1474786;40;20396;-81
2021/05/22 03:51:38;;;;;;;9.05;1.92;;;;;;;;;;1481533;40;20407;-81
2021/05/22 03:52:40;;;;;;;11.50;2.33;;;;;;;;;;1473694;40;20411;-82
2021/05/22 03:53:42;;;;;;;13.07;2.75;;;;;;;;;;1474490;40;20415;-81
2021/05/22 03:54:45;;;;;;;10.32;2.10;;;;;;;;;;1482713;40;20761;-83
2021/05/22 03:55:47;;;;;;;11.75;2.08;;;;;;;;;;1477863;40;20649;-82
2021/05/22 03:56:48;;;;;;;10.55;1.77;;;;;;;;;;1472944;40;20681;-81
2021/05/22 03:57:50;;;;;;;12.18;2.15;;;;;;;;;;1474053;40;20837;-82
2021/05/22 03:58:53;;;;;;;10.65;2.10;;;;;;;;;;1474123;40;20408;-82
2021/05/22 03:59:54;;;;;;;9.82;2.03;;;;;;;;;;1478717;40;20413;-80
2021/05/22 04:00:56;;;;;;;10.27;2.47;;;;;;;;;;1473944;40;20431;-81
2021/05/22 04:01:58;;;;;;;9.70;1.60;;;;;;;;;;1469960;40;20435;-81
2021/05/22 04:02:59;;;;;;;7.47;1.88;;;;;;;;;;1465650;40;20411;-82
2021/05/22 04:04:01;;;;;;;8.73;2.00;;;;;;;;;;1473866;40;20482;-81
2021/05/22 04:05:04;;;;;;;12.15;2.72;;;;;;;;;;1482626;40;20428;-81
2021/05/22 04:06:06;;;;;;;10.65;2.33;;;;;;;;;;1481413;40;20440;-81
2021/05/22 04:07:08;;;;;;;10.93;2.08;;;;;;;;;;1473226;40;20415;-81
2021/05/22 04:08:10;;;;;;;11.85;2.95;;;;;;;;;;1468013;40;20475;-81
2021/05/22 04:09:11;;;;;;;7.53;2.25;;;;;;;;;;1472322;40;20443;-81
2021/05/22 04:10:13;;;;;;;12.43;2.42;;;;;;;;;;1480147;40;20417;-81
2021/05/22 04:11:15;;;;;;;11.98;2.28;;;;;;;;;;1480239;40;20407;-81
2021/05/22 04:12:17;;;;;;;11.15;3.08;;;;;;;;;;1476967;40;20833;-81
2021/05/22 04:13:18;;;;;;;12.15;2.65;;;;;;;;;;1471362;40;20855;-81
2021/05/22 04:14:20;;;;;;;16.10;3.50;;;;;;;;;;1463312;40;20420;-81
2021/05/22 04:15:22;;;;;;;13.88;3.10;;;;;;;;;;1463197;40;20429;-81
2021/05/22 04:16:23;;;;;;;9.50;3.10;;;;;;;;;;1470256;40;20485;-81
2021/05/22 04:17:28;;;;;;;12.85;2.80;;;;;;;;;;1470363;40;20491;-82
2021/05/22 04:18:30;;;;;;;14.50;2.78;;;;;;;;;;1470383;40;20394;-82
2021/05/22 04:19:32;;;;;;;9.93;2.30;;;;;;;;;;1469695;40;20587;-82
2021/05/22 04:20:34;;;;;;;8.80;1.98;;;;;;;;;;1473806;40;20434;-82
2021/05/22 04:21:35;;;;;;;12.18;2.83;;;;;;;;;;1471977;40;20411;-81
2021/05/22 04:22:37;;;;;;;8.27;1.90;;;;;;;;;;1465929;40;20410;-82
2021/05/22 04:23:40;;;;;;;9.68;1.80;;;;;;;;;;1473714;40;20441;-81
2021/05/22 04:24:41;;;;;;;12.75;2.60;;;;;;;;;;1482701;40;20412;-81
2021/05/22 04:25:43;;;;;;;8.50;2.05;;;;;;;;;;1473661;40;20678;-81
2021/05/22 04:26:45;;;;;;;8.68;2.30;;;;;;;;;;1473569;40;20428;-83
2021/05/22 04:27:47;;;;;;;13.48;2.78;;;;;;;;;;1469955;40;20421;-83
2021/05/22 04:28:48;;;;;;;12.18;2.80;;;;;;;;;;1469848;40;20416;-83
2021/05/22 04:29:50;;;;;;;11.57;2.70;;;;;;;;;;1469986;40;20421;-82
2021/05/22 04:30:52;;;;;;;12.05;3.45;;;;;;;;;;1470175;40;20418;-81
2021/05/22 04:31:54;;;;;;;12.25;3.42;;;;;;;;;;1478134;40;20426;-82
2021/05/22 04:32:56;;;;;;;13.57;3.17;;;;;;;;;;1474138;40;20411;-83
2021/05/22 04:33:57;;;;;;;17.63;3.22;;;;;;;;;;1469541;40;20631;-82
2021/05/22 04:34:59;;;;;;;18.80;3.50;;;;;;;;;;1474398;40;20491;-81
2021/05/22 04:36:01;;;;;;;14.82;2.10;;;;;;;;;;1477840;40;20434;-83
2021/05/22 04:37:02;;;;;;;15.15;3.10;;;;;;;;;;1473097;40;20681;-82
2021/05/22 04:38:04;;;;;;;13.77;3.13;;;;;;;;;;1473789;40;20423;-82
2021/05/22 04:39:06;;;;;;;17.83;2.97;;;;;;;;;;1474034;40;20432;-82
2021/05/22 04:40:08;;;;;;;10.75;2.30;;;;;;;;;;1469960;40;20448;-82
2021/05/22 04:41:10;;;;;;;15.63;2.97;;;;;;;;;;1474267;40;20423;-82
2021/05/22 04:42:12;;;;;;;16.73;4.07;;;;;;;;;;1472042;40;20418;-82
2021/05/22 04:43:13;;;;;;;11.77;2.97;;;;;;;;;;1469805;40;20507;-81
2021/05/22 04:44:15;;;;;;;17.95;2.97;;;;;;;;;;1478088;40;20398;-82
2021/05/22 04:45:17;;;;;;;17.10;3.00;;;;;;;;;;1473887;40;20459;-81
2021/05/22 04:46:19;;;;;;;15.13;3.97;;;;;;;;;;1473873;40;20456;-82
2021/05/22 04:47:21;;;;;;;20.08;3.60;;;;;;;;;;1477756;40;20425;-82
2021/05/22 04:48:22;;;;;;;18.80;3.60;;;;;;;;;;1478119;40;20410;-81
2021/05/22 04:49:27;;;;;;;18.27;3.38;;;;;;;;;;1478094;40;20418;-82
2021/05/22 04:50:31;;;;;;;16.02;2.58;;;;;;;;;;1474160;40;20411;-82
2021/05/22 04:51:33;;;;;;;13.32;3.05;;;;;;;;;;1478754;40;20410;-81
2021/05/22 04:52:35;;;;;;;15.27;2.78;;;;;;;;;;1477799;40;20394;-82
2021/05/22 04:53:37;;;;;;;14.65;2.47;;;;;;;;;;1474152;40;20736;-82
2021/05/22 04:54:38;;;;;;;16.45;3.38;;;;;;;;;;1474045;40;20515;-82
2021/05/22 04:55:40;;;;;;;22.88;3.83;;;;;;;;;;1471149;40;20414;-82
2021/05/22 04:56:45;;;;;;;18.93;3.80;;;;;;;;;;1468353;40;20549;-82
2021/05/22 04:57:47;;;;;;;16.42;3.60;;;;;;;;;;1479441;40;20410;-83
2021/05/22 04:58:49;;;;;;;19.52;3.63;;;;;;;;;;1476092;40;20404;-83
2021/05/22 04:59:50;;;;;;;18.48;3.70;;;;;;;;;;1473826;40;20897;-83
2021/05/22 05:00:52;;;;;;;20.38;3.45;;;;;;;;;;1470132;40;20453;-81
2021/05/22 05:01:54;;;;;;;18.20;3.33;;;;;;;;;;1469779;40;20418;-81
2021/05/22 05:02:56;;;;;;;22.63;4.78;;;;;;;;;;1469819;40;20504;-82
2021/05/22 05:03:58;;;;;;;20.45;3.58;;;;;;;;;;1477727;40;20506;-81
2021/05/22 05:04:59;;;;;;;16.23;3.42;;;;;;;;;;1473412;40;20423;-82
2021/05/22 05:06:01;;;;;;;24.70;4.22;;;;;;;;;;1476907;40;20416;-81
2021/05/22 05:07:04;;;;;;;24.30;4.07;;;;;;;;;;1472689;40;20408;-83
2021/05/22 05:08:06;;;;;;;19.77;4.17;;;;;;;;;;1471739;40;20459;-82
2021/05/22 05:09:08;;;;;;;27.10;4.65;;;;;;;;;;1465888;40;20431;-82
2021/05/22 05:10:11;;;;;;;24.95;4.57;;;;;;;;;;1473758;40;20840;-83
2021/05/22 05:11:12;;;;;;;27.33;4.88;;;;;;;;;;1482330;40;20867;-82
2021/05/22 05:12:14;;;;;;;28.30;4.10;;;;;;;;;;1477162;40;20387;-82
2021/05/22 05:13:17;;;;;;;22.67;4.35;;;;;;;;;;1473913;40;20404;-82
2021/05/22 05:14:18;;;;;;;29.17;4.07;;;;;;;;;;1478314;40;20418;-81
2021/05/22 05:15:20;;;;;;;24.38;4.00;;;;;;;;;;1474186;40;20407;-82
2021/05/22 05:16:22;;;;;;;23.77;4.90;;;;;;;;;;1474139;40;20493;-82
2021/05/22 05:17:24;;;;;;;26.25;3.95;;;;;;;;;;1478059;40;20410;-82
2021/05/22 05:18:25;;;;;;;22.48;4.50;;;;;;;;;;1477648;40;21138;-82
2021/05/22 05:19:28;;;;;;;21.08;3.92;;;;;;;;;;1474074;40;20415;-82
2021/05/22 05:20:30;;;;;;;23.40;4.22;;;;;;;;;;1477590;40;20395;-83
2021/05/22 05:21:31;;;;;;;21.48;3.83;;;;;;;;;;1477705;40;20422;-82
2021/05/22 05:22:33;;;;;;;21.25;3.42;;;;;;;;;;1473612;40;20461;-82
2021/05/22 05:23:36;;;;;;;21.52;3.15;;;;;;;;;;1478138;40;20414;-82
2021/05/22 05:24:37;;;;;;;13.23;3.40;;;;;;;;;;1481937;40;20393;-81
2021/05/22 05:25:39;;;;;;;20.60;3.25;;;;;;;;;;1478064;40;20429;-82
2021/05/22 05:26:41;;;;;;;21.08;4.15;;;;;;;;;;1470048;40;20443;-82
2021/05/22 05:27:43;;;;;;;22.58;4.20;;;;;;;;;;1466099;40;20474;-81
2021/05/22 05:28:45;;;;;;;26.13;3.80;;;;;;;;;;1470404;40;20416;-82
2021/05/22 05:29:47;;;;;;;22.00;3.72;;;;;;;;;;1474597;40;20412;-81
2021/05/22 05:30:49;;;;;;;27.13;3.87;;;;;;;;;;1474074;40;20473;-83
2021/05/22 05:31:50;;;;;;;27.55;4.18;;;;;;;;;;1473469;40;20455;-83
2021/05/22 05:32:52;;;;;;;24.75;4.25;;;;;;;;;;1465617;40;20424;-83
2021/05/22 05:33:53;;;;;;;28.13;5.05;;;;;;;;;;1465773;40;20797;-82
2021/05/22 05:34:55;;;;;;;26.52;4.43;;;;;;;;;;1469608;40;20489;-82
2021/05/22 05:35:57;;;;;;;27.50;4.85;;;;;;;;;;1471761;40;20407;-81
2021/05/22 05:36:58;;;;;;;24.60;4.57;;;;;;;;;;1475843;40;20856;-81
2021/05/22 05:38:00;;;;;;;24.98;4.25;;;;;;;;;;1481982;40;20880;-81
2021/05/22 05:39:04;;;;;;;29.92;5.00;;;;;;;;;;1473616;40;20490;-81
2021/05/22 05:40:08;;;;;;;31.23;5.15;;;;;;;;;;1474010;40;20439;-82
2021/05/22 05:41:09;;;;;;;27.98;5.03;;;;;;;;;;1473613;40;20978;-82
2021/05/22 05:42:11;;;;;;;25.65;3.97;;;;;;;;;;1469846;40;20638;-81
2021/05/22 05:43:14;;;;;;;23.10;3.80;;;;;;;;;;1477862;40;21232;-81
2021/05/22 05:44:15;;;;;;;25.73;4.63;;;;;;;;;;1477743;40;20448;-81
2021/05/22 05:45:17;;;;;;;25.33;3.90;;;;;;;;;;1477700;40;20429;-82
2021/05/22 05:46:19;;;;;;;22.67;3.30;;;;;;;;;;1478290;40;20420;-81
2021/05/22 05:47:20;;;;;;;26.50;4.18;;;;;;;;;;1478290;40;20425;-82
2021/05/22 05:48:22;;;;;;;20.50;3.10;;;;;;;;;;1477952;40;20988;-81
2021/05/22 05:49:28;;;;;;;19.27;2.92;;;;;;;;;;1477066;40;20672;-82
2021/05/22 05:50:30;;;;;;;26.17;3.85;;;;;;;;;;1477420;40;20394;-82
2021/05/22 05:51:32;;;;;;;19.23;2.92;;;;;;;;;;1473370;40;20412;-81
2021/05/22 05:52:33;;;;;;;21.25;3.63;;;;;;;;;;1473236;40;20420;-81
2021/05/22 05:53:35;;;;;;;16.33;3.17;;;;;;;;;;1471089;40;20444;-81
2021/05/22 05:54:37;;;;;;;19.25;2.95;;;;;;;;;;1471754;40;20408;-81
2021/05/22 05:55:39;;;;;;;15.10;3.35;;;;;;;;;;1473273;40;20425;-82
2021/05/22 05:56:40;;;;;;;12.15;2.67;;;;;;;;;;1473746;40;20812;-81
2021/05/22 05:57:43;;;;;;;15.05;2.88;;;;;;;;;;1473855;40;20413;-82
2021/05/22 05:58:45;;;;;;;18.85;3.47;;;;;;;;;;1474323;40;20418;-81
2021/05/22 05:59:46;;;;;;;19.00;2.72;;;;;;;;;;1477903;40;20507;-81
2021/05/22 06:00:48;;;;;;;17.10;2.60;;;;;;;;;;1477598;40;20406;-82
2021/05/22 06:01:50;;;;;;;17.48;3.20;;;;;;;;;;1470517;40;20724;-82
2021/05/22 06:02:52;;;;;;;20.92;2.63;;;;;;;;;;1466604;40;20740;-83
2021/05/22 06:03:54;;;;;;;20.15;2.55;;;;;;;;;;1462562;40;20437;-82
2021/05/22 06:04:55;;;;;;;17.17;3.05;;;;;;;;;;1463618;40;20401;-82
2021/05/22 06:05:57;;;;;;;19.35;3.45;;;;;;;;;;1471920;40;20422;-82
2021/05/22 06:06:59;;;;;;;21.48;3.20;;;;;;;;;;1481319;40;20410;-83
2021/05/22 06:08:00;;;;;;;16.08;2.50;;;;;;;;;;1478551;40;20420;-82
2021/05/22 06:09:03;;;;;;;17.85;3.05;;;;;;;;;;1479799;40;20439;-83
2021/05/22 06:10:06;;;;;;;16.90;3.15;;;;;;;;;;1484144;39;20405;-82
2021/05/22 06:11:11;;;;;;;18.63;3.85;;;;;;;;;;1479198;40;20415;-81
2021/05/22 06:12:13;;;;;;;18.83;3.22;;;;;;;;;;1474467;40;20418;-82